Time,TemperatureF,DewpointF,PressureIn,WindDirection,WindDirectionDegrees,WindSpeedMPH,WindSpeedGustMPH,Humidity,HourlyPrecipIn,Conditions,Clouds,dailyrainin,SolarRadiationWatts/m^2,SoftwareType,DateUTC
2013-02-27 00:01:00,33.0,32.0,-100.00,NNW,332,4.0,8.0,95,0.00,,,0.00,0.000000,,2013-02-27 08:01:00,
2013-02-27 00:11:00,33.0,32.0,-100.00,NNW,332,4.0,8.0,95,0.00,,,0.00,0.000000,,2013-02-27 08:11:00,
2013-02-27 00:32:00,32.0,32.0,-100.00,NW,326,3.0,7.0,98,0.00,,,0.00,0.000000,,2013-02-27 08:32:00,
2013-02-27 00:42:00,32.0,32.0,-100.00,NW,326,3.0,7.0,98,0.00,,,0.00,0.000000,,2013-02-27 08:42:00,
2013-02-27 00:52:00,32.0,32.0,-100.00,NW,326,3.0,7.0,98,0.00,,,0.00,0.000000,,2013-02-27 08:52:00,
2013-02-27 01:01:00,32.0,32.0,-100.00,NW,326,3.0,7.0,98,0.00,,,0.00,0.000000,,2013-02-27 09:01:00,
2013-02-27 01:11:00,32.0,32.0,-100.00,NW,326,3.0,7.0,98,0.00,,,0.00,0.000000,,2013-02-27 09:11:00,
2013-02-27 01:32:00,31.0,31.0,-100.00,NW,307,4.0,8.0,100,0.00,,,0.00,0.000000,,2013-02-27 09:32:00,
2013-02-27 01:42:00,31.0,31.0,-100.00,NW,307,4.0,8.0,100,0.00,,,0.00,0.000000,,2013-02-27 09:42:00,
2013-02-27 01:52:00,31.0,31.0,-100.00,NW,307,4.0,8.0,100,0.00,,,0.00,0.000000,,2013-02-27 09:52:00,
2013-02-27 02:01:00,31.0,31.0,-100.00,NW,307,4.0,8.0,100,0.00,,,0.00,0.000000,,2013-02-27 10:01:00,
2013-02-27 02:12:00,31.0,31.0,-100.00,NW,307,4.0,8.0,100,0.00,,,0.00,0.000000,,2013-02-27 10:12:00,
2013-02-27 02:32:00,32.0,32.0,-100.00,NW,304,4.0,9.0,100,0.00,,,0.00,0.000000,,2013-02-27 10:32:00,
2013-02-27 02:42:00,32.0,32.0,-100.00,NW,304,4.0,9.0,100,0.00,,,0.00,0.000000,,2013-02-27 10:42:00,
2013-02-27 02:52:00,32.0,32.0,-100.00,NW,304,4.0,9.0,100,0.00,,,0.00,0.000000,,2013-02-27 10:52:00,
2013-02-27 03:01:00,32.0,32.0,-100.00,NW,304,4.0,9.0,100,0.00,,,0.00,0.000000,,2013-02-27 11:01:00,
2013-02-27 03:11:00,32.0,32.0,-100.00,NW,304,4.0,9.0,100,0.00,,,0.00,0.000000,,2013-02-27 11:11:00,
2013-02-27 03:32:00,32.0,32.0,-100.00,NW,305,5.0,10.0,100,0.00,,,0.00,0.000000,,2013-02-27 11:32:00,
2013-02-27 03:42:00,32.0,32.0,-100.00,NW,305,5.0,10.0,100,0.00,,,0.00,0.000000,,2013-02-27 11:42:00,
2013-02-27 03:52:00,32.0,32.0,-100.00,NW,305,5.0,10.0,100,0.00,,,0.00,0.000000,,2013-02-27 11:52:00,
2013-02-27 04:01:00,32.0,32.0,-100.00,NW,305,5.0,10.0,100,0.00,,,0.00,0.000000,,2013-02-27 12:01:00,
2013-02-27 04:12:00,32.0,32.0,-100.00,NW,305,5.0,10.0,100,0.00,,,0.00,0.000000,,2013-02-27 12:12:00,
2013-02-27 04:33:00,33.0,31.0,-100.00,NW,305,4.0,11.0,93,0.00,,,0.00,0.000000,,2013-02-27 12:33:00,
2013-02-27 04:42:00,33.0,31.0,-100.00,NW,305,4.0,11.0,93,0.00,,,0.00,0.000000,,2013-02-27 12:42:00,
2013-02-27 04:52:00,33.0,31.0,-100.00,NW,305,4.0,11.0,93,0.00,,,0.00,0.000000,,2013-02-27 12:52:00,
2013-02-27 05:02:00,33.0,31.0,-100.00,NW,305,4.0,11.0,93,0.00,,,0.00,0.000000,,2013-02-27 13:02:00,
2013-02-27 05:11:00,33.0,31.0,-100.00,NW,305,4.0,11.0,93,0.00,,,0.00,0.000000,,2013-02-27 13:11:00,
2013-02-27 05:32:00,33.0,33.0,-100.00,NW,310,5.0,10.0,99,0.00,,,0.00,0.000000,,2013-02-27 13:32:00,
2013-02-27 05:42:00,33.0,33.0,-100.00,NW,310,5.0,10.0,99,0.00,,,0.00,0.000000,,2013-02-27 13:42:00,
2013-02-27 05:52:00,33.0,33.0,-100.00,NW,310,5.0,10.0,99,0.00,,,0.00,0.000000,,2013-02-27 13:52:00,
2013-02-27 06:02:00,33.0,33.0,-100.00,NW,310,5.0,10.0,99,0.00,,,0.00,0.000000,,2013-02-27 14:02:00,
2013-02-27 06:11:00,33.0,33.0,-100.00,NW,310,5.0,10.0,99,0.00,,,0.00,0.000000,,2013-02-27 14:11:00,
2013-02-27 06:42:00,33.0,33.0,-100.00,NW,306,5.0,10.0,100,0.00,,,0.00,0.000000,,2013-02-27 14:42:00,
2013-02-27 06:52:00,33.0,33.0,-100.00,NW,306,5.0,10.0,100,0.00,,,0.00,0.000000,,2013-02-27 14:52:00,
2013-02-27 07:02:00,33.0,33.0,-100.00,NW,306,5.0,10.0,100,0.00,,,0.00,0.000000,,2013-02-27 15:02:00,
2013-02-27 07:12:00,33.0,33.0,-100.00,NW,306,5.0,10.0,100,0.00,,,0.00,0.000000,,2013-02-27 15:12:00,
2013-02-27 07:32:00,32.0,32.0,-100.00,NW,313,4.0,11.0,100,0.00,,,0.00,4.000000,,2013-02-27 15:32:00,
2013-02-27 07:42:00,32.0,32.0,-100.00,NW,313,4.0,11.0,100,0.00,,,0.00,4.000000,,2013-02-27 15:42:00,
2013-02-27 07:52:00,32.0,32.0,-100.00,NW,313,4.0,11.0,100,0.00,,,0.00,4.000000,,2013-02-27 15:52:00,
2013-02-27 08:01:00,32.0,32.0,-100.00,NW,313,4.0,11.0,100,0.00,,,0.00,4.000000,,2013-02-27 16:01:00,
2013-02-27 08:11:00,32.0,32.0,-100.00,NW,313,4.0,11.0,100,0.00,,,0.00,4.000000,,2013-02-27 16:11:00,
2013-02-27 08:32:00,33.0,33.0,-100.00,South,189,2.0,8.0,100,0.00,,,0.00,32.000000,,2013-02-27 16:32:00,
2013-02-27 08:42:00,33.0,33.0,-100.00,South,189,2.0,8.0,100,0.00,,,0.00,32.000000,,2013-02-27 16:42:00,
2013-02-27 08:52:00,33.0,33.0,-100.00,South,189,2.0,8.0,100,0.00,,,0.00,32.000000,,2013-02-27 16:52:00,
2013-02-27 09:01:00,33.0,33.0,-100.00,South,189,2.0,8.0,100,0.00,,,0.00,32.000000,,2013-02-27 17:01:00,
2013-02-27 09:11:00,33.0,33.0,-100.00,South,189,2.0,8.0,100,0.00,,,0.00,32.000000,,2013-02-27 17:11:00,
2013-02-27 09:32:00,35.0,33.0,-100.00,SSE,158,3.0,11.0,94,0.00,,,0.00,82.000000,,2013-02-27 17:32:00,
2013-02-27 09:42:00,35.0,33.0,-100.00,SSE,158,3.0,11.0,94,0.00,,,0.00,82.000000,,2013-02-27 17:42:00,
2013-02-27 09:52:00,35.0,33.0,-100.00,SSE,158,3.0,11.0,94,0.00,,,0.00,82.000000,,2013-02-27 17:52:00,
2013-02-27 10:01:00,35.0,33.0,-100.00,SSE,158,3.0,11.0,94,0.00,,,0.00,82.000000,,2013-02-27 18:01:00,
2013-02-27 10:11:00,35.0,33.0,-100.00,SSE,158,3.0,11.0,94,0.00,,,0.00,82.000000,,2013-02-27 18:11:00,
2013-02-27 10:32:00,39.0,35.0,-100.00,SE,139,3.0,6.0,84,0.00,,,0.00,220.000000,,2013-02-27 18:32:00,
2013-02-27 10:42:00,39.0,35.0,-100.00,SE,139,3.0,6.0,84,0.00,,,0.00,220.000000,,2013-02-27 18:42:00,
2013-02-27 10:52:00,39.0,35.0,-100.00,SE,139,3.0,6.0,84,0.00,,,0.00,220.000000,,2013-02-27 18:52:00,
2013-02-27 11:01:00,39.0,35.0,-100.00,SE,139,3.0,6.0,84,0.00,,,0.00,220.000000,,2013-02-27 19:01:00,
2013-02-27 11:11:00,39.0,35.0,-100.00,SE,139,3.0,6.0,84,0.00,,,0.00,220.000000,,2013-02-27 19:11:00,
2013-02-27 11:32:00,45.0,39.0,-100.00,SSE,162,6.0,9.0,78,0.00,,,0.00,427.000000,,2013-02-27 19:32:00,
2013-02-27 11:42:00,45.0,39.0,-100.00,SSE,162,6.0,9.0,78,0.00,,,0.00,427.000000,,2013-02-27 19:42:00,
2013-02-27 11:52:00,45.0,39.0,-100.00,SSE,162,6.0,9.0,78,0.00,,,0.00,427.000000,,2013-02-27 19:52:00,
2013-02-27 12:01:00,45.0,39.0,-100.00,SSE,162,6.0,9.0,78,0.00,,,0.00,427.000000,,2013-02-27 20:01:00,
2013-02-27 12:11:00,45.0,39.0,-100.00,SSE,162,6.0,9.0,78,0.00,,,0.00,427.000000,,2013-02-27 20:11:00,
2013-02-27 12:32:00,45.0,35.0,-100.00,South,171,4.0,10.0,69,0.00,,,-99.99,559.000000,,2013-02-27 20:32:00,
2013-02-27 12:42:00,45.0,35.0,-100.00,South,171,4.0,10.0,69,0.00,,,-99.99,559.000000,,2013-02-27 20:42:00,
2013-02-27 12:52:00,45.0,35.0,-100.00,South,171,4.0,10.0,69,0.00,,,-99.99,559.000000,,2013-02-27 20:52:00,
2013-02-27 13:01:00,45.0,35.0,-100.00,South,171,4.0,10.0,69,0.00,,,-99.99,559.000000,,2013-02-27 21:01:00,
2013-02-27 13:11:00,45.0,35.0,-100.00,South,171,4.0,10.0,69,0.00,,,-99.99,559.000000,,2013-02-27 21:11:00,
2013-02-27 13:42:00,44.0,37.0,-100.00,NNW,339,4.0,5.0,75,0.00,,,-99.99,298.000000,,2013-02-27 21:42:00,
2013-02-27 13:52:00,44.0,37.0,-100.00,NNW,339,4.0,5.0,75,0.00,,,-99.99,298.000000,,2013-02-27 21:52:00,
2013-02-27 14:01:00,44.0,37.0,-100.00,NNW,339,4.0,5.0,75,0.00,,,-99.99,298.000000,,2013-02-27 22:01:00,
2013-02-27 14:11:00,44.0,37.0,-100.00,NNW,339,4.0,5.0,75,0.00,,,-99.99,298.000000,,2013-02-27 22:11:00,
2013-02-27 14:42:00,45.0,33.0,-100.00,NNW,327,3.0,7.0,63,0.00,,,0.00,282.000000,,2013-02-27 22:42:00,
2013-02-27 14:52:00,45.0,33.0,-100.00,NNW,327,3.0,7.0,63,0.00,,,0.00,282.000000,,2013-02-27 22:52:00,
2013-02-27 15:01:00,45.0,33.0,-100.00,NNW,327,3.0,7.0,63,0.00,,,0.00,282.000000,,2013-02-27 23:01:00,
2013-02-27 15:11:00,45.0,33.0,-100.00,NNW,327,3.0,7.0,63,0.00,,,0.00,282.000000,,2013-02-27 23:11:00,
2013-02-27 15:32:00,45.0,36.0,-100.00,NNW,341,5.0,7.0,71,0.00,,,0.00,204.000000,,2013-02-27 23:32:00,
2013-02-27 15:42:00,45.0,36.0,-100.00,NNW,341,5.0,7.0,71,0.00,,,0.00,204.000000,,2013-02-27 23:42:00,
2013-02-27 15:53:00,45.0,36.0,-100.00,NNW,341,5.0,7.0,71,0.00,,,0.00,204.000000,,2013-02-27 23:53:00,
2013-02-27 16:01:00,45.0,36.0,-100.00,NNW,341,5.0,7.0,71,0.00,,,0.00,204.000000,,2013-02-28 00:01:00,
2013-02-27 16:11:00,45.0,36.0,-100.00,NNW,341,5.0,7.0,71,0.00,,,0.00,204.000000,,2013-02-28 00:11:00,
2013-02-27 16:32:00,44.0,39.0,-100.00,North,350,4.0,7.0,82,0.00,,,0.00,145.000000,,2013-02-28 00:32:00,
2013-02-27 16:42:00,44.0,39.0,-100.00,North,350,4.0,7.0,82,0.00,,,0.00,145.000000,,2013-02-28 00:42:00,
2013-02-27 16:52:00,44.0,39.0,-100.00,North,350,4.0,7.0,82,0.00,,,0.00,145.000000,,2013-02-28 00:52:00,
2013-02-27 17:01:00,44.0,39.0,-100.00,North,350,4.0,7.0,82,0.00,,,0.00,145.000000,,2013-02-28 01:01:00,
2013-02-27 17:11:00,44.0,39.0,-100.00,North,350,4.0,7.0,82,0.00,,,0.00,145.000000,,2013-02-28 01:11:00,
2013-02-27 17:32:00,41.0,38.0,-100.00,NNW,341,4.0,6.0,89,0.00,,,0.00,50.000000,,2013-02-28 01:32:00,
2013-02-27 17:42:00,41.0,38.0,-100.00,NNW,341,4.0,6.0,89,0.00,,,0.00,50.000000,,2013-02-28 01:42:00,
2013-02-27 17:52:00,41.0,38.0,-100.00,NNW,341,4.0,6.0,89,0.00,,,0.00,50.000000,,2013-02-28 01:52:00,
2013-02-27 18:01:00,41.0,38.0,-100.00,NNW,341,4.0,6.0,89,0.00,,,0.00,50.000000,,2013-02-28 02:01:00,
2013-02-27 18:11:00,41.0,38.0,-100.00,NNW,341,4.0,6.0,89,0.00,,,0.00,50.000000,,2013-02-28 02:11:00,
2013-02-27 19:01:00,40.0,39.0,-100.00,NW,308,3.0,6.0,95,0.00,,,0.00,4.000000,,2013-02-28 03:01:00,
2013-02-27 19:11:00,40.0,39.0,-100.00,NW,308,3.0,6.0,95,0.00,,,0.00,4.000000,,2013-02-28 03:11:00,
2013-02-27 19:32:00,40.0,39.0,-100.00,NNW,330,4.0,7.0,97,0.00,,,0.00,0.000000,,2013-02-28 03:32:00,
2013-02-27 19:42:00,40.0,39.0,-100.00,NNW,330,4.0,7.0,97,0.00,,,0.00,0.000000,,2013-02-28 03:42:00,
2013-02-27 19:52:00,40.0,39.0,-100.00,NNW,330,4.0,7.0,97,0.00,,,0.00,0.000000,,2013-02-28 03:52:00,
2013-02-27 20:01:00,40.0,39.0,-100.00,NNW,330,4.0,7.0,97,0.00,,,0.00,0.000000,,2013-02-28 04:01:00,
2013-02-27 20:11:00,40.0,39.0,-100.00,NNW,330,4.0,7.0,97,0.00,,,0.00,0.000000,,2013-02-28 04:11:00,
2013-02-27 20:32:00,39.0,39.0,-100.00,NW,325,3.0,5.0,100,0.00,,,0.00,0.000000,,2013-02-28 04:32:00,
2013-02-27 20:42:00,39.0,39.0,-100.00,NW,325,3.0,5.0,100,0.00,,,0.00,0.000000,,2013-02-28 04:42:00,
2013-02-27 20:52:00,39.0,39.0,-100.00,NW,325,3.0,5.0,100,0.00,,,0.00,0.000000,,2013-02-28 04:52:00,
2013-02-27 21:01:00,39.0,39.0,-100.00,NW,325,3.0,5.0,100,0.00,,,0.00,0.000000,,2013-02-28 05:01:00,
2013-02-27 21:11:00,39.0,39.0,-100.00,NW,325,3.0,5.0,100,0.00,,,0.00,0.000000,,2013-02-28 05:11:00,
2013-02-27 21:32:00,40.0,40.0,-100.00,NW,304,2.0,6.0,99,0.00,,,0.00,0.000000,,2013-02-28 05:32:00,
2013-02-27 21:42:00,40.0,40.0,-100.00,NW,304,2.0,6.0,99,0.00,,,0.00,0.000000,,2013-02-28 05:42:00,
2013-02-27 21:52:00,40.0,40.0,-100.00,NW,304,2.0,6.0,99,0.00,,,0.00,0.000000,,2013-02-28 05:52:00,
2013-02-27 22:01:00,40.0,40.0,-100.00,NW,304,2.0,6.0,99,0.00,,,0.00,0.000000,,2013-02-28 06:01:00,
2013-02-27 22:11:00,40.0,40.0,-100.00,NW,304,2.0,6.0,99,0.00,,,0.00,0.000000,,2013-02-28 06:11:00,
2013-02-27 22:32:00,39.0,39.0,-100.00,NNW,341,4.0,7.0,100,0.00,,,0.00,0.000000,,2013-02-28 06:32:00,
2013-02-27 22:42:00,39.0,39.0,-100.00,NNW,341,4.0,7.0,100,0.00,,,0.00,0.000000,,2013-02-28 06:42:00,
2013-02-27 22:52:00,39.0,39.0,-100.00,NNW,341,4.0,7.0,100,0.00,,,0.00,0.000000,,2013-02-28 06:52:00,
2013-02-27 23:01:00,39.0,39.0,-100.00,NNW,341,4.0,7.0,100,0.00,,,0.00,0.000000,,2013-02-28 07:01:00,
2013-02-27 23:11:00,39.0,39.0,-100.00,NNW,341,4.0,7.0,100,0.00,,,0.00,0.000000,,2013-02-28 07:11:00,
2013-02-27 23:32:00,39.0,39.0,-100.00,NW,318,2.0,6.0,100,0.00,,,0.00,0.000000,,2013-02-28 07:32:00,
2013-02-27 23:42:00,39.0,39.0,-100.00,NW,318,2.0,6.0,100,0.00,,,0.00,0.000000,,2013-02-28 07:42:00,
2013-02-27 23:52:00,39.0,39.0,-100.00,NW,318,2.0,6.0,100,0.00,,,0.00,0.000000,,2013-02-28 07:52:00,